Time;durP1;ratioP1;P1;durP2;ratioP2;P2;SDS_P1;SDS_P2;PMS_P1;PMS_P2;Temp;Humidity;BMP_temperature;BMP_pressure;BME280_temperature;BME280_humidity;BME280_pressure;Samples;Min_cycle;Max_cycle;Signal;HPM_P1;HPM_P2
2021/12/08 00:00:44;;;;;;;;;;;;;;;0.67;59.21;99288.09;4474462;32;20009;-91
2021/12/08 00:03:10;;;;;;;;;;;;;;;0.62;59.20;99289.78;4474839;32;19972;-92
2021/12/08 00:05:36;;;;;;;;;;;;;;;0.76;59.22;99292.37;4474695;32;20096;-91
2021/12/08 00:08:01;;;;;;;;;;;;;;;0.73;59.21;99279.56;4487715;32;19992;-92
2021/12/08 00:13:08;;;;;;;;;;;;;;;0.54;59.20;99292.34;4487182;32;19953;-90
2021/12/08 00:15:36;;;;;;;;;;;;;;;0.52;59.20;99303.47;4475478;32;19988;-89
2021/12/08 00:18:02;;;;;;;;;;;;;;;0.49;59.20;99295.78;4487367;32;20006;-90
2021/12/08 00:20:30;;;;;;;;;;;;;;;0.67;59.21;99288.09;4474391;32;19977;-89
2021/12/08 00:22:55;;;;;;;;;;;;;;;0.81;59.21;99290.66;4474809;32;20032;-89
2021/12/08 00:25:20;;;;;;;;;;;;;;;0.84;59.22;99293.22;4474552;32;20332;-90
2021/12/08 00:27:45;;;;;;;;;;;;;;;0.67;59.21;99308.56;4473902;32;23375;-90
2021/12/08 00:30:11;;;;;;;;;;;;;;;0.64;59.21;99300.87;4474032;32;19981;-90
2021/12/08 00:32:36;;;;;;;;;;;;;;;0.63;59.21;99312.00;4474450;32;20008;-90
2021/12/08 00:35:03;;;;;;;;;;;;;;;0.62;59.21;99302.59;4474435;32;20004;-91
2021/12/08 00:37:28;;;;;;;;;;;;;;;0.71;59.21;99317.09;4487257;32;20412;-91
2021/12/08 00:39:53;;;;;;;;;;;;;;;0.58;59.20;99313.69;4474166;32;19981;-90
2021/12/08 00:42:19;;;;;;;;;;;;;;;0.58;59.20;99306.87;4487243;32;19992;-90
2021/12/08 00:44:44;;;;;;;;;;;;;;;0.36;59.19;99312.81;4487547;32;19999;-91
2021/12/08 00:47:10;;;;;;;;;;;;;;;0.59;59.21;99312.84;4474553;32;20011;-91
2021/12/08 00:49:35;;;;;;;;;;;;;;;0.67;59.21;99312.84;4474461;32;19977;-90
2021/12/08 00:52:00;;;;;;;;;;;;;;;0.70;59.21;99313.69;4474226;32;20331;-90
2021/12/08 00:54:25;;;;;;;;;;;;;;;0.59;59.21;99317.97;4474384;32;20005;-91
2021/12/08 00:56:50;;;;;;;;;;;;;;;0.47;59.20;99316.22;4473302;32;20027;-89
2021/12/08 00:59:16;;;;;;;;;;;;;;;0.63;59.21;99314.56;4474366;32;19977;-90
2021/12/08 01:01:41;;;;;;;;;;;;;;;0.72;59.21;99316.28;4474438;32;19991;-91
2021/12/08 01:04:06;;;;;;;;;;;;;;;0.46;59.20;99314.53;4473947;32;20333;-90
2021/12/08 01:06:31;;;;;;;;;;;;;;;0.53;59.21;99318.81;4473897;32;20000;-90
2021/12/08 01:08:57;;;;;;;;;;;;;;;0.53;59.21;99316.25;4474110;32;20041;-90
2021/12/08 01:11:22;;;;;;;;;;;;;;;0.67;59.21;99313.69;4474274;32;20297;-91
2021/12/08 01:13:48;;;;;;;;;;;;;;;0.62;59.21;99325.66;4473491;32;19997;-89
2021/12/08 01:16:13;;;;;;;;;;;;;;;0.54;59.20;99312.00;4474137;32;20028;-89
2021/12/08 01:18:38;;;;;;;;;;;;;;;0.49;59.20;99313.69;4487132;32;20309;-90
2021/12/08 01:21:04;;;;;;;;;;;;;;;0.76;59.22;99306.03;4473820;32;19977;-90
2021/12/08 01:23:30;;;;;;;;;;;;;;;0.56;59.20;99305.16;4473745;32;20027;-90
2021/12/08 01:25:55;;;;;;;;;;;;;;;0.74;59.21;99300.06;4473489;32;20011;-91
2021/12/08 01:28:22;;;;;;;;;;;;;;;0.55;59.20;99285.53;4473321;32;20280;-91
2021/12/08 01:30:48;;;;;;;;;;;;;;;0.62;59.21;99292.34;4473712;32;19980;-90
2021/12/08 01:33:14;;;;;;;;;;;;;;;0.64;59.21;99288.09;4474196;32;19984;-91
2021/12/08 01:35:39;;;;;;;;;;;;;;;0.79;59.21;99282.97;4474021;32;20027;-91
2021/12/08 01:38:04;;;;;;;;;;;;;;;0.73;59.21;99272.75;4473771;32;19991;-91
2021/12/08 01:40:29;;;;;;;;;;;;;;;0.65;59.21;99268.44;4473169;32;20037;-91
2021/12/08 01:42:57;;;;;;;;;;;;;;;0.74;59.21;99265.91;4473292;32;20049;-91
2021/12/08 01:48:08;;;;;;;;;;;;;;;0.34;59.19;99263.31;4487366;32;20019;-91
2021/12/08 01:50:33;;;;;;;;;;;;;;;0.51;59.19;99260.78;4473690;32;19980;-90
2021/12/08 01:52:58;;;;;;;;;;;;;;;0.43;59.19;99254.78;4486388;32;19988;-91
2021/12/08 01:55:23;;;;;;;;;;;;;;;0.22;59.18;99256.47;4473550;32;20018;-91
2021/12/08 01:57:49;;;;;;;;;;;;;;;0.39;59.20;99263.31;4473194;32;19981;-91
2021/12/08 02:00:37;;;;;;;;;;;;;;;0.41;59.19;99252.22;4486421;32;20271;-91
2021/12/08 02:03:03;;;;;;;;;;;;;;;0.53;59.21;99248.81;4476041;32;20394;-91
2021/12/08 02:05:28;;;;;;;;;;;;;;;0.58;59.20;99252.22;4486222;32;20244;-91
2021/12/08 02:07:54;;;;;;;;;;;;;;;0.39;59.20;99250.50;4474723;32;20011;-91
2021/12/08 02:10:19;;;;;;;;;;;;;;;0.60;59.21;99245.41;4475286;32;19976;-90
2021/12/08 02:12:44;;;;;;;;;;;;;;;0.46;59.20;99240.25;4475181;32;19988;-91
2021/12/08 02:15:10;;;;;;;;;;;;;;;0.45;59.20;99232.59;4475056;32;20040;-91
2021/12/08 02:17:36;;;;;;;;;;;;;;;0.33;59.19;99230.87;4475589;32;19976;-91
2021/12/08 02:20:03;;;;;;;;;;;;;;;0.21;59.18;99216.34;4475350;32;19991;-91
2021/12/08 02:22:28;;;;;;;;;;;;;;;0.34;59.19;99213.81;4475611;32;20262;-91
2021/12/08 02:24:53;;;;;;;;;;;;;;;0.45;59.20;99217.22;4474953;32;21043;-91
2021/12/08 02:27:18;;;;;;;;;;;;;;;0.43;59.19;99224.91;4475367;32;19991;-88
2021/12/08 02:29:53;;;;;;;;;;;;;;;0.41;59.19;99233.44;4488390;32;19996;-90
2021/12/08 02:48:30;;;;;;;;;;;;;;;0.08;59.17;99244.50;4488855;32;20004;-90
2021/12/08 02:50:55;;;;;;;;;;;;;;;0.03;59.17;99251.31;4475036;32;20322;-90
2021/12/08 02:53:21;;;;;;;;;;;;;;;0.07;59.17;99253.87;4474898;32;19999;-89
2021/12/08 02:55:46;;;;;;;;;;;;;;;0.05;59.17;99254.75;4474552;32;20000;-90
2021/12/08 02:58:12;;;;;;;;;;;;;;;0.17;59.18;99260.72;4474572;32;20254;-89
2021/12/08 03:00:54;;;;;;;;;;;;;;;-0.24;59.16;99263.16;4474876;32;19980;-89
2021/12/08 03:03:20;;;;;;;;;;;;;;;-0.21;59.15;99267.47;4475082;32;19972;-89
2021/12/08 03:05:45;;;;;;;;;;;;;;;-0.38;59.15;99265.69;4475045;32;20345;-90
2021/12/08 03:08:10;;;;;;;;;;;;;;;-0.38;59.15;99265.69;4474819;32;19992;-89
2021/12/08 03:10:38;;;;;;;;;;;;;;;-0.23;59.16;99258.94;4474984;32;19999;-89
2021/12/08 03:13:03;;;;;;;;;;;;;;;-0.21;59.15;99259.78;4487785;32;20056;-89
2021/12/08 03:15:28;;;;;;;;;;;;;;;-0.29;59.15;99261.44;4487799;32;20318;-89
2021/12/08 03:17:54;;;;;;;;;;;;;;;-0.19;59.16;99269.16;4474303;32;26820;-90
2021/12/08 03:20:26;;;;;;;;;;;;;;;-0.05;59.17;99264.06;4473392;32;32253;-89
2021/12/08 03:22:56;;;;;;;;;;;;;;;-0.15;59.16;99255.53;4488033;32;20003;-88
2021/12/08 03:25:23;;;;;;;;;;;;;;;-0.11;59.17;99253.84;4474949;32;20000;-89
2021/12/08 03:28:03;;;;;;;;;;;;;;;-0.22;59.15;99258.94;4475253;32;19972;-89
2021/12/08 03:30:34;;;;;;;;;;;;;;;-0.15;59.16;99259.81;4475647;32;19999;-88
2021/12/08 03:32:59;;;;;;;;;;;;;;;-0.23;59.16;99253.81;4475511;32;19992;-88
2021/12/08 03:35:24;;;;;;;;;;;;;;;-0.12;59.17;99249.56;4474777;32;20332;-89
2021/12/08 03:37:50;;;;;;;;;;;;;;;-0.32;59.15;99245.25;4474718;32;20007;-89
2021/12/08 03:40:16;;;;;;;;;;;;;;;-0.29;59.15;99249.50;4474039;32;20029;-89
2021/12/08 03:42:41;;;;;;;;;;;;;;;-0.14;59.17;99244.47;4474561;32;20655;-88
2021/12/08 03:45:09;;;;;;;;;;;;;;;-0.24;59.16;99245.25;4474667;32;20042;-91
2021/12/08 03:47:38;;;;;;;;;;;;;;;-0.41;59.15;99249.47;4474905;32;19949;-92
2021/12/08 03:50:03;;;;;;;;;;;;;;;-0.30;59.15;99242.69;4474913;32;20597;-92
2021/12/08 03:52:28;;;;;;;;;;;;;;;-0.15;59.16;99236.78;4474795;32;20041;-90
2021/12/08 03:54:54;;;;;;;;;;;;;;;-0.24;59.16;99245.25;4474582;32;22021;-89
2021/12/08 03:57:19;;;;;;;;;;;;;;;-0.22;59.15;99235.91;4474026;32;22996;-90
2021/12/08 03:59:44;;;;;;;;;;;;;;;-0.28;59.16;99245.25;4474481;32;20004;-90
2021/12/08 04:02:09;;;;;;;;;;;;;;;-0.36;59.15;99248.66;4474431;32;19999;-91
2021/12/08 04:04:43;;;;;;;;;;;;;;;-0.23;59.15;99236.78;4474445;32;20442;-91
2021/12/08 04:07:09;;;;;;;;;;;;;;;-0.26;59.15;99243.56;4475309;32;19972;-91
2021/12/08 04:09:40;;;;;;;;;;;;;;;-0.18;59.16;99257.22;4474855;32;19976;-90
2021/12/08 04:12:07;;;;;;;;;;;;;;;-0.28;59.16;99258.03;4476414;32;20680;-91
2021/12/08 04:14:33;;;;;;;;;;;;;;;-0.32;59.15;99255.47;4474893;32;19988;-91
2021/12/08 04:17:00;;;;;;;;;;;;;;;-0.40;59.15;99251.19;4474607;32;20671;-90
2021/12/08 04:19:26;;;;;;;;;;;;;;;-0.41;59.15;99246.94;4474431;32;19992;-91
2021/12/08 04:21:51;;;;;;;;;;;;;;;-0.39;59.15;99248.63;4474382;32;19992;-91
2021/12/08 04:24:17;;;;;;;;;;;;;;;-0.50;59.15;99252.84;4474570;32;20040;-92
2021/12/08 04:26:44;;;;;;;;;;;;;;;-0.71;59.13;99248.50;4474833;32;19969;-91
2021/12/08 04:29:10;;;;;;;;;;;;;;;-0.70;59.14;99244.25;4475049;32;19957;-92
2021/12/08 04:31:36;;;;;;;;;;;;;;;-0.83;59.12;99234.78;4473192;32;19984;-92
2021/12/08 04:34:03;;;;;;;;;;;;;;;-0.62;59.13;99240.88;4487929;32;20019;-91
2021/12/08 04:36:38;;;;;;;;;;;;;;;-0.57;59.14;99242.59;4474637;32;19991;-90
2021/12/08 04:39:08;;;;;;;;;;;;;;;-0.80;59.12;99250.12;4474856;32;20349;-89
2021/12/08 04:41:39;;;;;;;;;;;;;;;-0.79;59.13;99255.25;4474943;32;20000;-89
2021/12/08 04:44:21;;;;;;;;;;;;;;;-0.94;59.11;99252.63;4474795;32;19988;-90
2021/12/08 05:00:29;;;;;;;;;;;;;;;-0.70;59.13;99268.09;4459312;32;19987;-90
2021/12/08 05:03:24;;;;;;;;;;;;;;;-0.77;59.13;99268.03;4473216;32;19971;-92
2021/12/08 05:08:40;;;;;;;;;;;;;;;-0.82;59.12;99251.84;4487612;32;20012;-91
2021/12/08 05:11:05;;;;;;;;;;;;;;;-0.90;59.12;99246.69;4475401;32;20003;-91
2021/12/08 05:13:31;;;;;;;;;;;;;;;-0.95;59.11;99254.34;4473707;32;20008;-90
2021/12/08 05:15:56;;;;;;;;;;;;;;;-0.96;59.11;99270.47;4474216;32;25531;-91
2021/12/08 05:18:23;;;;;;;;;;;;;;;-0.80;59.12;99270.59;4488058;32;20333;-92
2021/12/08 05:20:52;;;;;;;;;;;;;;;-0.99;59.11;99265.34;4474099;32;19992;-93
2021/12/08 05:23:22;;;;;;;;;;;;;;;-1.17;59.10;99255.03;4474394;32;20009;-93
2021/12/08 05:25:47;;;;;;;;;;;;;;;-1.14;59.11;99264.41;4474255;32;19992;-92
2021/12/08 05:28:13;;;;;;;;;;;;;;;-1.06;59.11;99258.50;4474048;32;20293;-91
2021/12/08 05:31:05;;;;;;;;;;;;;;;-1.17;59.09;99262.69;4473911;32;20017;-92
2021/12/08 05:33:30;;;;;;;;;;;;;;;-1.18;59.10;99245.66;4486809;32;20333;-92
2021/12/08 05:35:56;;;;;;;;;;;;;;;-1.23;59.10;99252.41;4473755;32;20029;-93
2021/12/08 05:38:21;;;;;;;;;;;;;;;-1.34;59.09;99243.84;4474277;32;20037;-93
2021/12/08 05:40:57;;;;;;;;;;;;;;;-1.28;59.10;99239.63;4474023;32;20524;-93
2021/12/08 05:43:22;;;;;;;;;;;;;;;-1.21;59.10;99235.41;4473751;32;19988;-93
2021/12/08 05:45:48;;;;;;;;;;;;;;;-1.21;59.10;99237.09;4474306;32;20010;-93
2021/12/08 05:48:13;;;;;;;;;;;;;;;-1.12;59.10;99244.84;4476898;32;20381;-93
2021/12/08 05:50:41;;;;;;;;;;;;;;;-1.15;59.11;99247.37;4476152;32;19980;-91
2021/12/08 05:53:07;;;;;;;;;;;;;;;-1.10;59.10;99254.22;4486428;32;20014;-90
2021/12/08 05:55:32;;;;;;;;;;;;;;;-1.24;59.09;99251.56;4473887;32;20008;-92
2021/12/08 05:57:58;;;;;;;;;;;;;;;-1.01;59.12;99250.88;4474316;32;20071;-90
2021/12/08 06:00:32;;;;;;;;;;;;;;;-1.15;59.11;99258.44;4474990;32;20325;-91
2021/12/08 06:02:58;;;;;;;;;;;;;;;-1.04;59.11;99253.41;4475707;32;20011;-91
2021/12/08 06:05:24;;;;;;;;;;;;;;;-1.13;59.11;99258.47;4475992;32;20008;-91
2021/12/08 06:07:49;;;;;;;;;;;;;;;-1.21;59.10;99254.97;4474414;32;19977;-91
2021/12/08 06:10:17;;;;;;;;;;;;;;;-1.33;59.09;99264.28;4473207;32;19996;-92
2021/12/08 06:12:42;;;;;;;;;;;;;;;-1.20;59.10;99262.66;4473403;32;19984;-92
2021/12/08 06:15:08;;;;;;;;;;;;;;;-1.26;59.10;99272.81;4473396;32;20006;-93
2021/12/08 06:17:33;;;;;;;;;;;;;;;-1.33;59.09;99268.53;4486997;32;20093;-93
2021/12/08 06:19:58;;;;;;;;;;;;;;;-1.31;59.09;99271.94;4474068;32;19973;-91
2021/12/08 06:22:23;;;;;;;;;;;;;;;-1.36;59.09;99260.84;4473235;32;20025;-91
2021/12/08 06:24:49;;;;;;;;;;;;;;;-1.28;59.10;99266.84;4472804;32;20037;-91
2021/12/08 06:27:14;;;;;;;;;;;;;;;-1.38;59.09;99259.97;4472891;32;20298;-92
2021/12/08 06:29:39;;;;;;;;;;;;;;;-1.37;59.10;99259.13;4472754;32;19994;-91
2021/12/08 06:32:06;;;;;;;;;;;;;;;-1.39;59.09;99260.81;4472751;32;19985;-93
2021/12/08 06:34:31;;;;;;;;;;;;;;;-1.47;59.08;99265.84;4473272;32;20004;-93
2021/12/08 06:36:59;;;;;;;;;;;;;;;-1.47;59.08;99283.72;4473175;32;19972;-91
2021/12/08 06:39:28;;;;;;;;;;;;;;;-1.27;59.10;99279.63;4472824;32;20002;-92
2021/12/08 06:41:55;;;;;;;;;;;;;;;-1.40;59.09;99271.88;4472745;32;20341;-92
2021/12/08 06:44:25;;;;;;;;;;;;;;;-1.26;59.10;99277.94;4472662;32;20053;-92
2021/12/08 06:46:50;;;;;;;;;;;;;;;-1.37;59.09;99274.44;4472555;32;19991;-93
2021/12/08 06:49:16;;;;;;;;;;;;;;;-1.40;59.09;99269.31;4486039;32;19993;-92
2021/12/08 06:51:42;;;;;;;;;;;;;;;-1.39;59.09;99268.47;4473044;32;20029;-92
2021/12/08 06:54:09;;;;;;;;;;;;;;;-1.50;59.08;99270.06;4473911;32;19995;-92
2021/12/08 06:56:42;;;;;;;;;;;;;;;-1.28;59.10;99266.84;4475327;32;19973;-92
2021/12/08 06:59:09;;;;;;;;;;;;;;;-1.21;59.10;99272.84;4475423;32;19972;-92
2021/12/08 07:07:00;;;;;;;;;;;;;;;-1.12;59.10;99262.72;4487493;31;20051;-93
2021/12/08 07:09:35;;;;;;;;;;;;;;;-1.11;59.10;99261.87;4475095;32;20063;-94
2021/12/08 07:12:04;;;;;;;;;;;;;;;-1.14;59.11;99260.16;4473554;32;20078;-91
2021/12/08 07:14:29;;;;;;;;;;;;;;;-1.10;59.10;99255.91;4486500;32;19996;-90
2021/12/08 07:16:55;;;;;;;;;;;;;;;-0.97;59.11;99257.69;4473095;32;20298;-93
2021/12/08 07:19:28;;;;;;;;;;;;;;;-0.97;59.11;99256.00;4473523;32;19980;-91
2021/12/08 07:21:53;;;;;;;;;;;;;;;-0.94;59.12;99258.59;4474176;32;20011;-91
2021/12/08 07:24:20;;;;;;;;;;;;;;;-1.01;59.12;99264.50;4475149;32;20036;-92
2021/12/08 07:26:46;;;;;;;;;;;;;;;-0.98;59.11;99261.09;4477784;32;19980;-92
2021/12/08 07:29:12;;;;;;;;;;;;;;;-0.96;59.11;99257.69;4474212;32;19999;-91
2021/12/08 07:31:39;;;;;;;;;;;;;;;-1.02;59.12;99260.22;4478631;32;19953;-91
2021/12/08 07:34:06;;;;;;;;;;;;;;;-0.85;59.12;99262.88;4476675;32;20055;-92
2021/12/08 07:36:35;;;;;;;;;;;;;;;-0.71;59.13;99263.84;4473744;32;19964;-91
2021/12/08 07:39:01;;;;;;;;;;;;;;;-0.66;59.13;99263.84;4486927;32;20658;-92
2021/12/08 07:41:31;;;;;;;;;;;;;;;-0.59;59.13;99269.84;4474195;32;19992;-92
2021/12/08 07:43:57;;;;;;;;;;;;;;;-0.49;59.15;99269.87;4475619;32;20000;-92
2021/12/08 07:46:27;;;;;;;;;;;;;;;-0.47;59.14;99269.91;4473569;32;19972;-92
2021/12/08 07:49:21;;;;;;;;;;;;;;;-0.42;59.15;99271.63;4473602;32;19995;-92
2021/12/08 07:51:51;;;;;;;;;;;;;;;-0.38;59.15;99265.69;4469634;32;19977;-92
2021/12/08 07:54:16;;;;;;;;;;;;;;;-0.18;59.16;99268.31;4473712;32;20341;-92
2021/12/08 07:56:43;;;;;;;;;;;;;;;-0.20;59.16;99279.41;4473448;32;19992;-91
2021/12/08 07:59:09;;;;;;;;;;;;;;;-0.19;59.16;99268.31;4475924;32;19981;-91
2021/12/08 08:01:36;;;;;;;;;;;;;;;-0.12;59.17;99270.88;4473236;32;20026;-93
2021/12/08 08:04:02;;;;;;;;;;;;;;;-0.02;59.17;99264.09;4473208;32;20000;-92
2021/12/08 08:06:30;;;;;;;;;;;;;;;0.13;59.18;99271.81;4473085;32;19972;-92
2021/12/08 08:08:55;;;;;;;;;;;;;;;0.42;59.19;99271.00;4473281;32;19984;-92
2021/12/08 08:11:22;;;;;;;;;;;;;;;0.54;59.20;99269.31;4473186;32;20007;-91
2021/12/08 08:13:47;;;;;;;;;;;;;;;0.51;59.19;99265.91;4473313;32;20028;-91
2021/12/08 08:16:14;;;;;;;;;;;;;;;0.55;59.20;99263.34;4473875;32;20335;-91
2021/12/08 08:18:40;;;;;;;;;;;;;;;0.63;59.20;99268.44;4473056;32;19988;-92
2021/12/08 08:21:07;;;;;;;;;;;;;;;0.72;59.21;99271.03;4473116;32;21211;-91
2021/12/08 08:23:32;;;;;;;;;;;;;;;0.82;59.22;99275.28;4473235;32;19965;-91
2021/12/08 08:25:58;;;;;;;;;;;;;;;0.92;59.22;99269.28;4473120;32;20061;-91
2021/12/08 08:28:23;;;;;;;;;;;;;;;1.05;59.23;99271.84;4473397;32;19984;-91
2021/12/08 08:30:51;;;;;;;;;;;;;;;1.36;59.25;99272.62;4486339;32;20360;-91
2021/12/08 08:33:16;;;;;;;;;;;;;;;1.50;59.26;99281.16;4475988;32;20004;-91
2021/12/08 08:35:44;;;;;;;;;;;;;;;1.55;59.26;99274.28;4476195;32;20353;-90
2021/12/08 08:38:12;;;;;;;;;;;;;;;1.82;59.27;99274.16;4473309;32;20579;-92
2021/12/08 08:40:39;;;;;;;;;;;;;;;1.85;59.28;99270.72;4485740;32;19988;-91
2021/12/08 08:43:05;;;;;;;;;;;;;;;2.06;59.28;99269.78;4472828;32;19979;-92
2021/12/08 08:45:35;;;;;;;;;;;;;;;2.22;59.30;99275.69;4472700;32;19996;-91
2021/12/08 08:48:03;;;;;;;;;;;;;;;2.35;59.30;99265.31;4472885;32;20040;-92
2021/12/08 08:50:31;;;;;;;;;;;;;;;2.30;59.30;99268.78;4472661;32;20638;-92
2021/12/08 08:52:56;;;;;;;;;;;;;;;2.38;59.31;99261.91;4472898;32;20016;-91
2021/12/08 08:55:23;;;;;;;;;;;;;;;2.46;59.31;99267.81;4472706;32;20029;-92
2021/12/08 08:57:49;;;;;;;;;;;;;;;2.61;59.32;99265.16;4472976;32;19980;-92
2021/12/08 09:00:14;;;;;;;;;;;;;;;2.74;59.33;99271.03;4472713;32;20015;-92
2021/12/08 09:02:39;;;;;;;;;;;;;;;2.88;59.34;99253.78;4485770;32;20272;-92
2021/12/08 09:05:10;;;;;;;;;;;;;;;2.94;59.33;99247.72;4472686;32;20308;-91
2021/12/08 09:07:36;;;;;;;;;;;;;;;2.89;59.34;99245.19;4472661;32;20003;-91
2021/12/08 09:10:05;;;;;;;;;;;;;;;2.94;59.35;99233.16;4472802;32;20678;-92
2021/12/08 09:12:35;;;;;;;;;;;;;;;3.04;59.34;99239.03;4486447;32;20376;-92
2021/12/08 09:15:02;;;;;;;;;;;;;;;3.10;59.35;99244.16;4472525;32;19980;-93
2021/12/08 09:17:31;;;;;;;;;;;;;;;3.15;59.35;99242.38;4471656;32;19963;-92
2021/12/08 09:20:22;;;;;;;;;;;;;;;3.33;59.36;99236.19;4472262;32;20025;-91
2021/12/08 09:22:56;;;;;;;;;;;;;;;3.44;59.37;99236.91;4473069;32;20057;-93
2021/12/08 09:25:27;;;;;;;;;;;;;;;3.60;59.37;99230.72;4472763;32;19985;-92
2021/12/08 09:27:53;;;;;;;;;;;;;;;3.65;59.38;99243.53;4472553;32;19963;-92
2021/12/08 09:30:23;;;;;;;;;;;;;;;3.64;59.38;99239.25;4472174;32;19984;-93
2021/12/08 09:32:53;;;;;;;;;;;;;;;3.75;59.38;99234.81;4472398;32;20000;-93
2021/12/08 09:35:23;;;;;;;;;;;;;;;3.74;59.38;99219.38;4472299;32;19968;-92
2021/12/08 09:37:53;;;;;;;;;;;;;;;3.84;59.39;99213.25;4472454;32;19973;-92
2021/12/08 09:40:22;;;;;;;;;;;;;;;3.94;59.40;99220.81;4472314;32;20101;-92
2021/12/08 09:42:53;;;;;;;;;;;;;;;4.07;59.40;99220.66;4472174;32;20028;-92
2021/12/08 09:45:20;;;;;;;;;;;;;;;4.14;59.41;99211.97;4472463;32;19996;-92
2021/12/08 09:47:45;;;;;;;;;;;;;;;4.20;59.41;99205.00;4472348;32;20043;-92
2021/12/08 09:50:11;;;;;;;;;;;;;;;4.34;59.41;99203.94;4471671;32;20073;-93
2021/12/08 09:52:37;;;;;;;;;;;;;;;4.20;59.42;99199.84;4472471;32;19992;-93
2021/12/08 09:55:02;;;;;;;;;;;;;;;4.40;59.42;99196.13;4471944;32;20034;-93
2021/12/08 09:57:27;;;;;;;;;;;;;;;4.50;59.43;99195.97;4471838;32;19984;-94
2021/12/08 09:59:53;;;;;;;;;;;;;;;4.34;59.41;99204.78;4471780;32;20019;-93
2021/12/08 10:02:25;;;;;;;;;;;;;;;4.71;59.43;99196.44;4471725;32;20016;-92
2021/12/08 10:04:51;;;;;;;;;;;;;;;4.82;59.45;99190.25;4472721;32;19953;-95
2021/12/08 10:07:16;;;;;;;;;;;;;;;4.82;59.45;99187.66;4471626;32;19972;-93
2021/12/08 10:09:41;;;;;;;;;;;;;;;4.99;59.45;99181.38;4472083;32;19996;-93
2021/12/08 10:12:06;;;;;;;;;;;;;;;5.15;59.46;99180.16;4472225;32;19992;-93
2021/12/08 10:14:32;;;;;;;;;;;;;;;5.05;59.46;99186.41;4471647;32;20045;-94
2021/12/08 10:16:57;;;;;;;;;;;;;;;5.03;59.46;99173.53;4472639;32;20001;-94
2021/12/08 10:19:22;;;;;;;;;;;;;;;5.17;59.47;99168.94;4472318;32;20302;-94
2021/12/08 10:21:47;;;;;;;;;;;;;;;5.24;59.47;99178.28;4471785;32;20032;-94
2021/12/08 10:24:19;;;;;;;;;;;;;;;5.34;59.47;99172.94;4471646;32;19984;-95
2021/12/08 10:26:44;;;;;;;;;;;;;;;5.44;59.48;99167.56;4484738;32;19993;-92
2021/12/08 10:29:10;;;;;;;;;;;;;;;5.50;59.48;99164.00;4472342;32;19984;-93
2021/12/08 10:31:43;;;;;;;;;;;;;;;5.57;59.48;99157.81;4474362;32;20402;-93
2021/12/08 10:36:47;;;;;;;;;;;;;;;5.50;59.48;99157.09;4487062;32;20394;-94
2021/12/08 10:39:24;;;;;;;;;;;;;;;5.37;59.47;99149.63;4486716;32;19973;-94
2021/12/08 10:42:08;;;;;;;;;;;;;;;5.43;59.48;99150.34;4487588;32;20435;-94
2021/12/08 10:44:41;;;;;;;;;;;;;;;5.40;59.48;99137.50;4487032;32;19996;-93
2021/12/08 10:47:07;;;;;;;;;;;;;;;5.44;59.48;99135.72;4474581;32;20003;-93
2021/12/08 10:54:48;;;;;;;;;;;;;;;5.16;59.46;99130.28;4489140;32;20862;-94
2021/12/08 10:57:24;;;;;;;;;;;;;;;5.27;59.47;99127.50;4474022;32;20004;-95
2021/12/08 10:59:56;;;;;;;;;;;;;;;5.30;59.46;99124.84;4474360;32;20059;-93
2021/12/08 11:02:40;;;;;;;;;;;;;;;5.37;59.47;99118.66;4477044;32;20004;-92
2021/12/08 11:05:07;;;;;;;;;;;;;;;4.93;59.46;99129.00;4491560;31;19963;-94
2021/12/08 11:07:32;;;;;;;;;;;;;;;5.24;59.46;99125.81;4474765;32;20062;-93
2021/12/08 11:09:57;;;;;;;;;;;;;;;5.33;59.48;99117.87;4474042;32;24819;-95
2021/12/08 11:12:37;;;;;;;;;;;;;;;5.52;59.48;99110.59;4473502;32;20090;-95
2021/12/08 11:15:02;;;;;;;;;;;;;;;5.54;59.47;99103.66;4473761;32;20400;-95
2021/12/08 11:17:28;;;;;;;;;;;;;;;5.35;59.47;99110.09;4474254;32;20042;-95
2021/12/08 11:20:29;;;;;;;;;;;;;;;5.53;59.49;99105.41;4473483;32;20007;-94
2021/12/08 11:22:58;;;;;;;;;;;;;;;5.52;59.48;99105.44;4474061;32;19991;-94
2021/12/08 11:25:31;;;;;;;;;;;;;;;5.35;59.47;99102.37;4473538;32;19984;-94
2021/12/08 11:28:16;;;;;;;;;;;;;;;5.67;59.49;99102.50;4473757;32;19997;-94
2021/12/08 11:30:41;;;;;;;;;;;;;;;5.71;59.50;99096.41;4487216;32;20003;-95
2021/12/08 11:33:10;;;;;;;;;;;;;;;5.71;59.50;99101.56;4472947;32;21512;-94
2021/12/08 11:35:36;;;;;;;;;;;;;;;5.51;59.48;99101.16;4473364;32;19980;-94
2021/12/08 11:38:01;;;;;;;;;;;;;;;5.53;59.49;99102.81;4473623;32;20045;-94
2021/12/08 11:40:26;;;;;;;;;;;;;;;5.48;59.48;99091.75;4473103;32;20067;-95
2021/12/08 11:42:52;;;;;;;;;;;;;;;5.36;59.47;99096.31;4473458;32;20027;-95
2021/12/08 11:45:18;;;;;;;;;;;;;;;5.29;59.47;99094.75;4473155;32;20791;-93
2021/12/08 11:47:44;;;;;;;;;;;;;;;5.58;59.49;99091.53;4473743;32;19981;-95
2021/12/08 11:50:11;;;;;;;;;;;;;;;5.41;59.47;99090.16;4473828;32;19999;-94
2021/12/08 11:52:36;;;;;;;;;;;;;;;5.44;59.48;99095.28;4473396;32;20304;-95
2021/12/08 11:55:01;;;;;;;;;;;;;;;5.51;59.48;99083.94;4486483;32;20036;-94
2021/12/08 11:57:28;;;;;;;;;;;;;;;5.38;59.47;99084.22;4486915;32;20245;-94
2021/12/08 12:00:18;;;;;;;;;;;;;;;5.53;59.49;99086.50;4486571;32;20007;-94
2021/12/08 12:02:44;;;;;;;;;;;;;;;5.43;59.48;99087.56;4477137;32;20632;-94
2021/12/08 12:05:11;;;;;;;;;;;;;;;5.62;59.49;99083.69;4486254;31;20052;-95
2021/12/08 12:07:36;;;;;;;;;;;;;;;5.59;59.49;99082.91;4473027;32;20333;-94
2021/12/08 12:10:01;;;;;;;;;;;;;;;5.67;59.49;99081.84;4473106;32;20012;-95
2021/12/08 12:12:27;;;;;;;;;;;;;;;5.51;59.48;99075.34;4473219;32;20334;-95
2021/12/08 12:14:52;;;;;;;;;;;;;;;5.71;59.50;99074.91;4472839;32;20500;-95
2021/12/08 12:17:17;;;;;;;;;;;;;;;5.62;59.49;99073.38;4473274;32;19992;-93
2021/12/08 12:19:45;;;;;;;;;;;;;;;5.74;59.49;99067.09;4473171;32;20227;-94
2021/12/08 12:22:29;;;;;;;;;;;;;;;5.47;59.48;99066.84;4472892;32;20015;-93
2021/12/08 12:25:00;;;;;;;;;;;;;;;5.27;59.47;99066.41;4473444;32;20007;-94
2021/12/08 12:27:40;;;;;;;;;;;;;;;5.18;59.47;99061.44;4486393;32;20014;-93
2021/12/08 12:30:12;;;;;;;;;;;;;;;5.50;59.48;99064.19;4472857;32;20614;-95
2021/12/08 12:32:51;;;;;;;;;;;;;;;5.44;59.48;99069.47;4486063;32;20015;-95
2021/12/08 12:35:25;;;;;;;;;;;;;;;5.28;59.47;99067.25;4473075;32;20344;-94
2021/12/08 12:38:01;;;;;;;;;;;;;;;5.30;59.47;99060.34;4473849;32;19957;-94
2021/12/08 12:40:30;;;;;;;;;;;;;;;5.51;59.48;99065.03;4472846;32;20044;-94
2021/12/08 12:42:56;;;;;;;;;;;;;;;5.68;59.49;99056.87;4472801;32;20067;-94
2021/12/08 12:45:23;;;;;;;;;;;;;;;5.58;59.49;99058.84;4473060;32;19989;-94
2021/12/08 12:48:07;;;;;;;;;;;;;;;5.36;59.47;99055.87;4472882;32;19966;-94
2021/12/08 12:50:32;;;;;;;;;;;;;;;5.32;59.47;99053.41;4486243;32;19993;-94
2021/12/08 12:52:58;;;;;;;;;;;;;;;5.16;59.46;99050.31;4471613;32;20035;-94
2021/12/08 12:55:26;;;;;;;;;;;;;;;5.43;59.48;99051.44;4473172;32;19987;-93
2021/12/08 12:58:01;;;;;;;;;;;;;;;5.59;59.49;99050.19;4485790;32;19975;-93
2021/12/08 13:00:27;;;;;;;;;;;;;;;5.55;59.49;99046.84;4485816;32;19993;-93
2021/12/08 13:02:52;;;;;;;;;;;;;;;5.50;59.48;99038.38;4472805;32;20434;-93
2021/12/08 13:05:18;;;;;;;;;;;;;;;5.56;59.49;99047.69;4472617;32;20020;-94
2021/12/08 13:07:55;;;;;;;;;;;;;;;5.22;59.46;99045.03;4472798;32;20016;-95
2021/12/08 13:10:28;;;;;;;;;;;;;;;4.98;59.45;99043.81;4472577;32;19996;-94
2021/12/08 13:12:53;;;;;;;;;;;;;;;5.16;59.46;99042.56;4473431;32;20000;-93
2021/12/08 13:15:20;;;;;;;;;;;;;;;5.27;59.47;99050.94;4471949;32;30764;-94
2021/12/08 13:18:04;;;;;;;;;;;;;;;5.28;59.46;99042.31;4473094;32;20003;-94
2021/12/08 13:20:30;;;;;;;;;;;;;;;5.31;59.47;99051.72;4486096;32;20309;-94
2021/12/08 13:23:01;;;;;;;;;;;;;;;5.40;59.48;99049.75;4472864;32;20052;-92
2021/12/08 13:25:31;;;;;;;;;;;;;;;5.32;59.48;99053.41;4473095;32;20008;-93
2021/12/08 13:28:18;;;;;;;;;;;;;;;5.46;59.49;99054.81;4472822;32;19980;-93
2021/12/08 13:30:44;;;;;;;;;;;;;;;5.58;59.49;99061.41;4473168;32;19968;-93
2021/12/08 13:33:22;;;;;;;;;;;;;;;5.64;59.49;99057.84;4474650;32;19992;-92
2021/12/08 13:35:47;;;;;;;;;;;;;;;5.31;59.46;99056.87;4475711;32;19963;-92
2021/12/08 13:38:13;;;;;;;;;;;;;;;5.60;59.48;99056.22;4472989;32;19984;-93
2021/12/08 13:40:44;;;;;;;;;;;;;;;5.46;59.48;99053.97;4485664;32;20054;-93
2021/12/08 13:43:10;;;;;;;;;;;;;;;5.54;59.47;99059.78;4486314;32;20001;-93
2021/12/08 13:45:45;;;;;;;;;;;;;;;5.57;59.49;99056.28;4473120;32;19972;-94
2021/12/08 13:48:10;;;;;;;;;;;;;;;5.46;59.49;99065.13;4472206;32;20350;-94